sensor_id;sensor_type;location;lat;lon;timestamp;P1;durP1;ratioP1;P2;durP2;ratioP2
50367;SDS011;36281;34.132;-118.018;2024-02-21T00:00:41;2.20;;;1.50;;
50367;SDS011;36281;34.132;-118.018;2024-02-21T00:03:11;2.20;;;1.40;;
50367;SDS011;36281;34.132;-118.018;2024-02-21T00:05:41;2.33;;;1.67;;
50367;SDS011;36281;34.132;-118.018;2024-02-21T00:08:11;1.80;;;1.27;;
50367;SDS011;36281;34.132;-118.018;2024-02-21T00:10:40;1.77;;;1.55;;
50367;SDS011;36281;34.132;-118.018;2024-02-21T00:13:09;2.90;;;1.75;;
50367;SDS011;36281;34.132;-118.018;2024-02-21T00:15:38;1.92;;;1.70;;
50367;SDS011;36281;34.132;-118.018;2024-02-21T00:18:07;2.45;;;1.83;;
50367;SDS011;36281;34.132;-118.018;2024-02-21T00:20:38;2.70;;;1.95;;
50367;SDS011;36281;34.132;-118.018;2024-02-21T00:23:09;4.03;;;1.63;;
50367;SDS011;36281;34.132;-118.018;2024-02-21T00:25:38;2.72;;;1.50;;
50367;SDS011;36281;34.132;-118.018;2024-02-21T00:28:07;1.40;;;1.30;;
50367;SDS011;36281;34.132;-118.018;2024-02-21T00:30:36;3.90;;;1.98;;
50367;SDS011;36281;34.132;-118.018;2024-02-21T00:33:05;1.88;;;1.70;;
50367;SDS011;36281;34.132;-118.018;2024-02-21T00:35:35;1.73;;;1.60;;
50367;SDS011;36281;34.132;-118.018;2024-02-21T00:38:06;2.13;;;1.40;;
50367;SDS011;36281;34.132;-118.018;2024-02-21T00:40:35;1.50;;;1.40;;
50367;SDS011;36281;34.132;-118.018;2024-02-21T00:43:04;1.65;;;1.55;;
50367;SDS011;36281;34.132;-118.018;2024-02-21T00:45:33;2.45;;;1.95;;
50367;SDS011;36281;34.132;-118.018;2024-02-21T00:48:02;2.45;;;1.80;;
50367;SDS011;36281;34.132;-118.018;2024-02-21T00:50:32;2.05;;;1.75;;
50367;SDS011;36281;34.132;-118.018;2024-02-21T00:53:01;2.78;;;1.70;;
50367;SDS011;36281;34.132;-118.018;2024-02-21T00:55:32;2.17;;;1.95;;
50367;SDS011;36281;34.132;-118.018;2024-02-21T00:58:02;2.60;;;1.83;;
50367;SDS011;36281;34.132;-118.018;2024-02-21T01:00:31;2.80;;;2.00;;
50367;SDS011;36281;34.132;-118.018;2024-02-21T01:03:00;2.65;;;1.92;;
50367;SDS011;36281;34.132;-118.018;2024-02-21T01:05:29;2.05;;;1.58;;
50367;SDS011;36281;34.132;-118.018;2024-02-21T01:07:58;2.85;;;2.17;;
50367;SDS011;36281;34.132;-118.018;2024-02-21T01:10:27;4.00;;;1.70;;
50367;SDS011;36281;34.132;-118.018;2024-02-21T01:12:59;2.78;;;1.80;;
50367;SDS011;36281;34.132;-118.018;2024-02-21T01:15:28;2.70;;;1.90;;
50367;SDS011;36281;34.132;-118.018;2024-02-21T01:17:57;2.88;;;2.00;;
50367;SDS011;36281;34.132;-118.018;2024-02-21T01:20:26;4.07;;;2.35;;
50367;SDS011;36281;34.132;-118.018;2024-02-21T01:22:55;3.45;;;2.35;;
50367;SDS011;36281;34.132;-118.018;2024-02-21T01:25:25;4.82;;;2.42;;
50367;SDS011;36281;34.132;-118.018;2024-02-21T01:27:54;2.28;;;1.80;;
50367;SDS011;36281;34.132;-118.018;2024-02-21T01:30:24;3.30;;;1.80;;
50367;SDS011;36281;34.132;-118.018;2024-02-21T01:32:53;2.33;;;1.80;;
50367;SDS011;36281;34.132;-118.018;2024-02-21T01:35:23;4.20;;;2.15;;
50367;SDS011;36281;34.132;-118.018;2024-02-21T01:37:52;1.88;;;1.75;;
50367;SDS011;36281;34.132;-118.018;2024-02-21T01:40:21;2.03;;;1.85;;
50367;SDS011;36281;34.132;-118.018;2024-02-21T01:42:50;2.28;;;1.95;;
50367;SDS011;36281;34.132;-118.018;2024-02-21T01:45:24;2.50;;;1.73;;
50367;SDS011;36281;34.132;-118.018;2024-02-21T01:47:53;3.15;;;1.90;;
50367;SDS011;36281;34.132;-118.018;2024-02-21T01:50:22;3.88;;;1.80;;
50367;SDS011;36281;34.132;-118.018;2024-02-21T01:52:52;2.10;;;1.70;;
50367;SDS011;36281;34.132;-118.018;2024-02-21T01:55:21;2.22;;;1.77;;
50367;SDS011;36281;34.132;-118.018;2024-02-21T01:57:51;2.05;;;1.65;;
50367;SDS011;36281;34.132;-118.018;2024-02-21T02:00:20;2.85;;;1.98;;
50367;SDS011;36281;34.132;-118.018;2024-02-21T02:02:51;2.10;;;1.90;;
50367;SDS011;36281;34.132;-118.018;2024-02-21T02:05:21;5.05;;;2.30;;
50367;SDS011;36281;34.132;-118.018;2024-02-21T02:07:51;3.90;;;2.30;;
50367;SDS011;36281;34.132;-118.018;2024-02-21T02:10:20;3.42;;;2.20;;
50367;SDS011;36281;34.132;-118.018;2024-02-21T02:12:49;2.35;;;1.98;;
50367;SDS011;36281;34.132;-118.018;2024-02-21T02:15:18;2.13;;;1.90;;
50367;SDS011;36281;34.132;-118.018;2024-02-21T02:17:47;2.65;;;1.90;;
50367;SDS011;36281;34.132;-118.018;2024-02-21T02:20:18;3.08;;;2.15;;
50367;SDS011;36281;34.132;-118.018;2024-02-21T02:22:47;2.30;;;2.10;;
50367;SDS011;36281;34.132;-118.018;2024-02-21T02:25:19;2.28;;;2.08;;
50367;SDS011;36281;34.132;-118.018;2024-02-21T02:27:49;2.72;;;2.30;;
50367;SDS011;36281;34.132;-118.018;2024-02-21T02:30:18;3.90;;;2.10;;
50367;SDS011;36281;34.132;-118.018;2024-02-21T02:32:47;3.13;;;2.20;;
50367;SDS011;36281;34.132;-118.018;2024-02-21T02:35:16;3.83;;;2.50;;
50367;SDS011;36281;34.132;-118.018;2024-02-21T02:37:48;4.68;;;2.50;;
50367;SDS011;36281;34.132;-118.018;2024-02-21T02:40:19;2.60;;;2.40;;
50367;SDS011;36281;34.132;-118.018;2024-02-21T02:42:49;3.17;;;2.47;;
50367;SDS011;36281;34.132;-118.018;2024-02-21T02:45:18;4.22;;;2.58;;
50367;SDS011;36281;34.132;-118.018;2024-02-21T02:47:47;2.90;;;2.60;;
50367;SDS011;36281;34.132;-118.018;2024-02-21T02:50:16;3.55;;;2.95;;
50367;SDS011;36281;34.132;-118.018;2024-02-21T02:52:45;2.92;;;2.67;;
50367;SDS011;36281;34.132;-118.018;2024-02-21T02:55:15;3.90;;;2.90;;
50367;SDS011;36281;34.132;-118.018;2024-02-21T02:57:45;4.45;;;3.10;;
50367;SDS011;36281;34.132;-118.018;2024-02-21T03:00:15;4.47;;;3.17;;
50367;SDS011;36281;34.132;-118.018;2024-02-21T03:02:45;4.05;;;3.22;;
50367;SDS011;36281;34.132;-118.018;2024-02-21T03:05:15;3.90;;;3.03;;
50367;SDS011;36281;34.132;-118.018;2024-02-21T03:07:45;3.75;;;3.10;;
50367;SDS011;36281;34.132;-118.018;2024-02-21T03:10:14;4.75;;;3.42;;
50367;SDS011;36281;34.132;-118.018;2024-02-21T03:12:48;4.00;;;3.58;;
50367;SDS011;36281;34.132;-118.018;2024-02-21T03:15:18;4.32;;;3.63;;
50367;SDS011;36281;34.132;-118.018;2024-02-21T03:17:47;3.60;;;3.30;;
50367;SDS011;36281;34.132;-118.018;2024-02-21T03:20:16;4.90;;;3.75;;
50367;SDS011;36281;34.132;-118.018;2024-02-21T03:22:47;4.90;;;3.33;;
50367;SDS011;36281;34.132;-118.018;2024-02-21T03:25:16;4.20;;;3.53;;
50367;SDS011;36281;34.132;-118.018;2024-02-21T03:27:49;4.13;;;3.50;;
50367;SDS011;36281;34.132;-118.018;2024-02-21T03:30:19;4.05;;;3.65;;
50367;SDS011;36281;34.132;-118.018;2024-02-21T03:32:48;4.38;;;3.63;;
50367;SDS011;36281;34.132;-118.018;2024-02-21T03:35:17;4.40;;;3.72;;
50367;SDS011;36281;34.132;-118.018;2024-02-21T03:37:46;3.90;;;3.50;;
50367;SDS011;36281;34.132;-118.018;2024-02-21T03:40:15;6.20;;;4.50;;
50367;SDS011;36281;34.132;-118.018;2024-02-21T03:42:44;4.85;;;4.07;;
50367;SDS011;36281;34.132;-118.018;2024-02-21T03:45:15;5.70;;;4.28;;
50367;SDS011;36281;34.132;-118.018;2024-02-21T03:47:44;6.20;;;4.57;;
50367;SDS011;36281;34.132;-118.018;2024-02-21T03:50:13;6.03;;;4.50;;
50367;SDS011;36281;34.132;-118.018;2024-02-21T03:52:42;5.97;;;4.28;;
50367;SDS011;36281;34.132;-118.018;2024-02-21T03:55:12;4.60;;;4.10;;
50367;SDS011;36281;34.132;-118.018;2024-02-21T03:57:41;4.60;;;4.10;;
50367;SDS011;36281;34.132;-118.018;2024-02-21T04:00:10;4.70;;;4.30;;
50367;SDS011;36281;34.132;-118.018;2024-02-21T04:02:41;6.38;;;4.45;;
50367;SDS011;36281;34.132;-118.018;2024-02-21T04:05:10;4.60;;;4.20;;
50367;SDS011;36281;34.132;-118.018;2024-02-21T04:07:40;6.07;;;4.43;;
50367;SDS011;36281;34.132;-118.018;2024-02-21T04:10:09;5.45;;;4.65;;
50367;SDS011;36281;34.132;-118.018;2024-02-21T04:12:38;5.70;;;4.63;;
50367;SDS011;36281;34.132;-118.018;2024-02-21T04:15:07;5.18;;;4.40;;
50367;SDS011;36281;34.132;-118.018;2024-02-21T04:17:37;5.65;;;4.28;;
50367;SDS011;36281;34.132;-118.018;2024-02-21T04:20:13;5.65;;;4.22;;
50367;SDS011;36281;34.132;-118.018;2024-02-21T04:22:43;4.97;;;4.20;;
50367;SDS011;36281;34.132;-118.018;2024-02-21T04:25:12;7.15;;;4.88;;
50367;SDS011;36281;34.132;-118.018;2024-02-21T04:27:42;6.10;;;4.18;;
50367;SDS011;36281;34.132;-118.018;2024-02-21T04:30:11;6.35;;;4.72;;
50367;SDS011;36281;34.132;-118.018;2024-02-21T04:32:40;4.50;;;4.10;;
50367;SDS011;36281;34.132;-118.018;2024-02-21T04:35:11;4.90;;;4.40;;
50367;SDS011;36281;34.132;-118.018;2024-02-21T04:37:41;5.80;;;4.50;;
50367;SDS011;36281;34.132;-118.018;2024-02-21T04:40:10;5.93;;;4.55;;
50367;SDS011;36281;34.132;-118.018;2024-02-21T04:42:41;4.90;;;4.45;;
50367;SDS011;36281;34.132;-118.018;2024-02-21T04:45:10;4.95;;;4.45;;
50367;SDS011;36281;34.132;-118.018;2024-02-21T04:47:39;6.00;;;5.18;;
50367;SDS011;36281;34.132;-118.018;2024-02-21T04:50:08;7.40;;;4.75;;
50367;SDS011;36281;34.132;-118.018;2024-02-21T04:52:39;5.20;;;4.45;;
50367;SDS011;36281;34.132;-118.018;2024-02-21T04:55:08;5.80;;;5.20;;
50367;SDS011;36281;34.132;-118.018;2024-02-21T04:57:37;6.57;;;5.03;;
50367;SDS011;36281;34.132;-118.018;2024-02-21T05:00:07;5.93;;;5.07;;
50367;SDS011;36281;34.132;-118.018;2024-02-21T05:02:37;6.45;;;5.40;;
50367;SDS011;36281;34.132;-118.018;2024-02-21T05:05:06;7.00;;;5.43;;
50367;SDS011;36281;34.132;-118.018;2024-02-21T05:07:38;6.90;;;5.30;;
50367;SDS011;36281;34.132;-118.018;2024-02-21T05:10:07;5.97;;;5.35;;
50367;SDS011;36281;34.132;-118.018;2024-02-21T05:12:37;6.10;;;5.07;;
50367;SDS011;36281;34.132;-118.018;2024-02-21T05:15:06;5.90;;;5.25;;
50367;SDS011;36281;34.132;-118.018;2024-02-21T05:17:36;7.07;;;5.10;;
50367;SDS011;36281;34.132;-118.018;2024-02-21T05:20:06;6.50;;;5.10;;
50367;SDS011;36281;34.132;-118.018;2024-02-21T05:22:35;6.32;;;5.53;;
50367;SDS011;36281;34.132;-118.018;2024-02-21T05:25:07;6.55;;;5.40;;
50367;SDS011;36281;34.132;-118.018;2024-02-21T05:27:36;7.75;;;5.47;;
50367;SDS011;36281;34.132;-118.018;2024-02-21T05:30:06;6.38;;;4.82;;
50367;SDS011;36281;34.132;-118.018;2024-02-21T05:32:36;6.68;;;5.63;;
50367;SDS011;36281;34.132;-118.018;2024-02-21T05:35:05;7.10;;;5.03;;
50367;SDS011;36281;34.132;-118.018;2024-02-21T05:37:35;6.03;;;5.32;;
50367;SDS011;36281;34.132;-118.018;2024-02-21T05:40:06;6.40;;;4.95;;
50367;SDS011;36281;34.132;-118.018;2024-02-21T05:42:36;5.65;;;5.05;;
50367;SDS011;36281;34.132;-118.018;2024-02-21T05:45:05;8.23;;;5.32;;
50367;SDS011;36281;34.132;-118.018;2024-02-21T05:47:34;5.60;;;5.10;;
50367;SDS011;36281;34.132;-118.018;2024-02-21T05:50:04;5.55;;;5.00;;
50367;SDS011;36281;34.132;-118.018;2024-02-21T05:52:34;8.07;;;5.70;;
50367;SDS011;36281;34.132;-118.018;2024-02-21T05:55:03;5.50;;;5.00;;
50367;SDS011;36281;34.132;-118.018;2024-02-21T05:57:34;5.63;;;4.72;;
50367;SDS011;36281;34.132;-118.018;2024-02-21T06:00:04;6.32;;;5.13;;
50367;SDS011;36281;34.132;-118.018;2024-02-21T06:02:34;5.10;;;4.60;;
50367;SDS011;36281;34.132;-118.018;2024-02-21T06:05:03;6.72;;;5.20;;
50367;SDS011;36281;34.132;-118.018;2024-02-21T06:07:35;7.45;;;5.40;;
50367;SDS011;36281;34.132;-118.018;2024-02-21T06:10:06;6.70;;;5.40;;
50367;SDS011;36281;34.132;-118.018;2024-02-21T06:12:36;5.85;;;5.25;;
50367;SDS011;36281;34.132;-118.018;2024-02-21T06:15:06;7.18;;;5.60;;
50367;SDS011;36281;34.132;-118.018;2024-02-21T06:17:35;8.15;;;6.50;;
50367;SDS011;36281;34.132;-118.018;2024-02-21T06:20:05;6.63;;;5.82;;
50367;SDS011;36281;34.132;-118.018;2024-02-21T06:22:35;9.40;;;6.88;;
50367;SDS011;36281;34.132;-118.018;2024-02-21T06:25:06;8.25;;;6.93;;
50367;SDS011;36281;34.132;-118.018;2024-02-21T06:27:35;8.80;;;6.60;;
50367;SDS011;36281;34.132;-118.018;2024-02-21T06:30:05;9.77;;;6.95;;
50367;SDS011;36281;34.132;-118.018;2024-02-21T06:32:34;7.53;;;6.38;;
50367;SDS011;36281;34.132;-118.018;2024-02-21T06:35:04;8.35;;;7.00;;
50367;SDS011;36281;34.132;-118.018;2024-02-21T06:37:33;9.50;;;7.45;;
50367;SDS011;36281;34.132;-118.018;2024-02-21T06:40:03;9.90;;;7.22;;
50367;SDS011;36281;34.132;-118.018;2024-02-21T06:42:35;10.05;;;7.45;;
50367;SDS011;36281;34.132;-118.018;2024-02-21T06:45:04;7.50;;;6.78;;
50367;SDS011;36281;34.132;-118.018;2024-02-21T06:47:34;8.20;;;6.70;;
50367;SDS011;36281;34.132;-118.018;2024-02-21T06:50:03;7.43;;;6.55;;
50367;SDS011;36281;34.132;-118.018;2024-02-21T06:52:33;7.60;;;6.38;;
50367;SDS011;36281;34.132;-118.018;2024-02-21T06:55:02;7.03;;;6.30;;
50367;SDS011;36281;34.132;-118.018;2024-02-21T06:57:33;8.68;;;6.85;;
50367;SDS011;36281;34.132;-118.018;2024-02-21T07:00:02;7.03;;;6.28;;
50367;SDS011;36281;34.132;-118.018;2024-02-21T07:02:35;6.57;;;5.88;;
50367;SDS011;36281;34.132;-118.018;2024-02-21T07:05:05;6.57;;;5.00;;
50367;SDS011;36281;34.132;-118.018;2024-02-21T07:07:34;6.05;;;5.45;;
50367;SDS011;36281;34.132;-118.018;2024-02-21T07:10:04;6.00;;;5.05;;
50367;SDS011;36281;34.132;-118.018;2024-02-21T07:12:35;6.35;;;5.05;;
50367;SDS011;36281;34.132;-118.018;2024-02-21T07:15:06;6.45;;;5.45;;
50367;SDS011;36281;34.132;-118.018;2024-02-21T07:17:35;7.65;;;5.82;;
50367;SDS011;36281;34.132;-118.018;2024-02-21T07:20:05;6.88;;;6.18;;
50367;SDS011;36281;34.132;-118.018;2024-02-21T07:22:35;7.78;;;6.75;;
50367;SDS011;36281;34.132;-118.018;2024-02-21T07:25:04;8.32;;;6.78;;
50367;SDS011;36281;34.132;-118.018;2024-02-21T07:27:35;8.45;;;7.30;;
50367;SDS011;36281;34.132;-118.018;2024-02-21T07:30:05;8.32;;;7.22;;
50367;SDS011;36281;34.132;-118.018;2024-02-21T07:32:35;7.90;;;6.97;;
50367;SDS011;36281;34.132;-118.018;2024-02-21T07:35:04;8.45;;;7.57;;
50367;SDS011;36281;34.132;-118.018;2024-02-21T07:37:38;10.23;;;8.57;;
50367;SDS011;36281;34.132;-118.018;2024-02-21T07:40:12;13.43;;;10.77;;
50367;SDS011;36281;34.132;-118.018;2024-02-21T07:42:43;15.60;;;13.35;;
50367;SDS011;36281;34.132;-118.018;2024-02-21T07:45:17;17.65;;;15.40;;
50367;SDS011;36281;34.132;-118.018;2024-02-21T07:47:49;18.67;;;15.88;;
50367;SDS011;36281;34.132;-118.018;2024-02-21T07:50:18;18.20;;;16.30;;
50367;SDS011;36281;34.132;-118.018;2024-02-21T07:52:48;20.42;;;16.70;;
50367;SDS011;36281;34.132;-118.018;2024-02-21T07:55:17;24.88;;;17.65;;
50367;SDS011;36281;34.132;-118.018;2024-02-21T07:57:48;25.80;;;18.90;;
50367;SDS011;36281;34.132;-118.018;2024-02-21T08:00:17;21.98;;;17.80;;
50367;SDS011;36281;34.132;-118.018;2024-02-21T08:02:48;21.70;;;17.70;;
50367;SDS011;36281;34.132;-118.018;2024-02-21T08:05:17;22.63;;;18.30;;
50367;SDS011;36281;34.132;-118.018;2024-02-21T08:07:47;23.45;;;18.17;;
50367;SDS011;36281;34.132;-118.018;2024-02-21T08:10:17;22.45;;;17.30;;
50367;SDS011;36281;34.132;-118.018;2024-02-21T08:12:48;21.88;;;17.83;;
50367;SDS011;36281;34.132;-118.018;2024-02-21T08:15:17;24.17;;;18.08;;
50367;SDS011;36281;34.132;-118.018;2024-02-21T08:17:46;24.27;;;18.95;;
50367;SDS011;36281;34.132;-118.018;2024-02-21T08:20:15;22.88;;;17.52;;
50367;SDS011;36281;34.132;-118.018;2024-02-21T08:22:44;22.42;;;18.02;;
50367;SDS011;36281;34.132;-118.018;2024-02-21T08:25:13;26.02;;;18.77;;
50367;SDS011;36281;34.132;-118.018;2024-02-21T08:27:42;23.38;;;18.42;;
50367;SDS011;36281;34.132;-118.018;2024-02-21T08:30:15;24.02;;;18.60;;
50367;SDS011;36281;34.132;-118.018;2024-02-21T08:32:44;24.90;;;19.90;;
50367;SDS011;36281;34.132;-118.018;2024-02-21T08:35:13;27.05;;;19.42;;
50367;SDS011;36281;34.132;-118.018;2024-02-21T08:37:42;26.65;;;20.73;;
50367;SDS011;36281;34.132;-118.018;2024-02-21T08:40:11;27.00;;;20.45;;
50367;SDS011;36281;34.132;-118.018;2024-02-21T08:42:41;27.35;;;20.55;;
50367;SDS011;36281;34.132;-118.018;2024-02-21T08:45:10;29.85;;;20.50;;
50367;SDS011;36281;34.132;-118.018;2024-02-21T08:47:41;27.80;;;20.65;;
50367;SDS011;36281;34.132;-118.018;2024-02-21T08:50:10;28.92;;;20.23;;
50367;SDS011;36281;34.132;-118.018;2024-02-21T08:52:53;24.02;;;18.25;;
50367;SDS011;36281;34.132;-118.018;2024-02-21T08:55:23;19.55;;;14.45;;
50367;SDS011;36281;34.132;-118.018;2024-02-21T08:57:52;22.17;;;15.60;;
50367;SDS011;36281;34.132;-118.018;2024-02-21T09:00:21;21.55;;;16.27;;
50367;SDS011;36281;34.132;-118.018;2024-02-21T09:02:56;16.58;;;12.30;;
50367;SDS011;36281;34.132;-118.018;2024-02-21T09:05:25;14.65;;;10.70;;
50367;SDS011;36281;34.132;-118.018;2024-02-21T09:07:55;12.75;;;9.68;;
50367;SDS011;36281;34.132;-118.018;2024-02-21T09:10:24;14.27;;;10.45;;
50367;SDS011;36281;34.132;-118.018;2024-02-21T09:12:53;14.25;;;10.73;;
50367;SDS011;36281;34.132;-118.018;2024-02-21T09:15:22;17.65;;;11.25;;
50367;SDS011;36281;34.132;-118.018;2024-02-21T09:17:52;17.25;;;12.38;;
50367;SDS011;36281;34.132;-118.018;2024-02-21T09:20:22;18.77;;;12.38;;
50367;SDS011;36281;34.132;-118.018;2024-02-21T09:22:52;17.20;;;11.88;;
50367;SDS011;36281;34.132;-118.018;2024-02-21T09:25:21;15.32;;;11.65;;
50367;SDS011;36281;34.132;-118.018;2024-02-21T09:27:50;15.27;;;11.63;;
50367;SDS011;36281;34.132;-118.018;2024-02-21T09:30:20;16.63;;;12.30;;
50367;SDS011;36281;34.132;-118.018;2024-02-21T09:32:49;15.93;;;11.85;;
50367;SDS011;36281;34.132;-118.018;2024-02-21T09:35:18;16.20;;;12.05;;
50367;SDS011;36281;34.132;-118.018;2024-02-21T09:37:49;18.38;;;12.65;;
50367;SDS011;36281;34.132;-118.018;2024-02-21T09:40:18;17.65;;;12.75;;
50367;SDS011;36281;34.132;-118.018;2024-02-21T09:42:47;15.65;;;12.18;;
50367;SDS011;36281;34.132;-118.018;2024-02-21T09:45:19;15.35;;;12.15;;
50367;SDS011;36281;34.132;-118.018;2024-02-21T09:47:51;18.58;;;13.02;;
50367;SDS011;36281;34.132;-118.018;2024-02-21T09:50:31;18.38;;;13.30;;
50367;SDS011;36281;34.132;-118.018;2024-02-21T09:53:04;18.33;;;13.02;;
50367;SDS011;36281;34.132;-118.018;2024-02-21T09:55:34;16.77;;;12.75;;
50367;SDS011;36281;34.132;-118.018;2024-02-21T09:58:07;18.25;;;12.88;;
50367;SDS011;36281;34.132;-118.018;2024-02-21T10:00:37;16.88;;;12.20;;
50367;SDS011;36281;34.132;-118.018;2024-02-21T10:03:06;18.02;;;12.25;;
50367;SDS011;36281;34.132;-118.018;2024-02-21T10:05:36;20.63;;;12.90;;
50367;SDS011;36281;34.132;-118.018;2024-02-21T10:08:13;17.58;;;13.18;;
50367;SDS011;36281;34.132;-118.018;2024-02-21T10:10:43;21.63;;;14.68;;
50367;SDS011;36281;34.132;-118.018;2024-02-21T10:13:23;22.40;;;15.48;;
50367;SDS011;36281;34.132;-118.018;2024-02-21T10:16:04;20.33;;;13.10;;
50367;SDS011;36281;34.132;-118.018;2024-02-21T10:18:34;21.27;;;13.18;;
50367;SDS011;36281;34.132;-118.018;2024-02-21T10:21:04;17.23;;;12.50;;
50367;SDS011;36281;34.132;-118.018;2024-02-21T10:23:45;17.50;;;11.82;;
50367;SDS011;36281;34.132;-118.018;2024-02-21T10:26:15;19.40;;;13.65;;
50367;SDS011;36281;34.132;-118.018;2024-02-21T10:28:45;19.05;;;13.25;;
50367;SDS011;36281;34.132;-118.018;2024-02-21T10:31:22;19.88;;;14.05;;
50367;SDS011;36281;34.132;-118.018;2024-02-21T10:33:55;18.17;;;12.90;;
50367;SDS011;36281;34.132;-118.018;2024-02-21T10:36:25;21.38;;;13.63;;
50367;SDS011;36281;34.132;-118.018;2024-02-21T10:38:56;20.40;;;13.40;;
50367;SDS011;36281;34.132;-118.018;2024-02-21T10:41:25;24.38;;;14.95;;
50367;SDS011;36281;34.132;-118.018;2024-02-21T10:43:56;21.00;;;15.13;;
50367;SDS011;36281;34.132;-118.018;2024-02-21T10:46:27;23.13;;;15.48;;
50367;SDS011;36281;34.132;-118.018;2024-02-21T10:49:03;23.48;;;15.80;;
50367;SDS011;36281;34.132;-118.018;2024-02-21T10:51:40;28.20;;;18.58;;
50367;SDS011;36281;34.132;-118.018;2024-02-21T10:54:17;28.80;;;18.92;;
50367;SDS011;36281;34.132;-118.018;2024-02-21T10:56:58;29.13;;;19.08;;
50367;SDS011;36281;34.132;-118.018;2024-02-21T10:59:31;28.02;;;19.35;;
50367;SDS011;36281;34.132;-118.018;2024-02-21T11:02:01;29.02;;;20.50;;
50367;SDS011;36281;34.132;-118.018;2024-02-21T11:04:32;27.02;;;18.67;;
50367;SDS011;36281;34.132;-118.018;2024-02-21T11:07:04;24.90;;;17.88;;
50367;SDS011;36281;34.132;-118.018;2024-02-21T11:09:39;28.45;;;18.65;;
50367;SDS011;36281;34.132;-118.018;2024-02-21T11:12:08;26.08;;;17.55;;
50367;SDS011;36281;34.132;-118.018;2024-02-21T11:14:38;24.00;;;16.70;;
50367;SDS011;36281;34.132;-118.018;2024-02-21T11:17:14;17.95;;;13.07;;
50367;SDS011;36281;34.132;-118.018;2024-02-21T11:19:44;16.85;;;12.00;;
50367;SDS011;36281;34.132;-118.018;2024-02-21T11:22:14;15.50;;;11.75;;
50367;SDS011;36281;34.132;-118.018;2024-02-21T11:24:49;15.73;;;11.85;;
50367;SDS011;36281;34.132;-118.018;2024-02-21T11:27:19;17.25;;;12.38;;
50367;SDS011;36281;34.132;-118.018;2024-02-21T11:29:49;18.08;;;12.25;;
50367;SDS011;36281;34.132;-118.018;2024-02-21T11:32:22;12.25;;;9.88;;
50367;SDS011;36281;34.132;-118.018;2024-02-21T11:34:54;15.25;;;10.90;;
50367;SDS011;36281;34.132;-118.018;2024-02-21T11:37:25;13.50;;;9.60;;
50367;SDS011;36281;34.132;-118.018;2024-02-21T11:39:56;13.27;;;8.57;;
50367;SDS011;36281;34.132;-118.018;2024-02-21T11:42:26;13.90;;;9.10;;
50367;SDS011;36281;34.132;-118.018;2024-02-21T11:44:56;13.20;;;8.93;;
50367;SDS011;36281;34.132;-118.018;2024-02-21T11:47:27;10.88;;;8.10;;
50367;SDS011;36281;34.132;-118.018;2024-02-21T11:49:57;11.07;;;7.60;;
50367;SDS011;36281;34.132;-118.018;2024-02-21T11:52:26;11.32;;;8.00;;
50367;SDS011;36281;34.132;-118.018;2024-02-21T11:54:57;11.75;;;8.20;;
50367;SDS011;36281;34.132;-118.018;2024-02-21T11:57:32;10.80;;;7.57;;
50367;SDS011;36281;34.132;-118.018;2024-02-21T12:00:11;9.98;;;7.32;;
50367;SDS011;36281;34.132;-118.018;2024-02-21T12:02:42;11.65;;;7.60;;
50367;SDS011;36281;34.132;-118.018;2024-02-21T12:05:11;9.68;;;6.10;;
50367;SDS011;36281;34.132;-118.018;2024-02-21T12:07:41;8.68;;;5.88;;
50367;SDS011;36281;34.132;-118.018;2024-02-21T12:10:12;7.18;;;5.25;;
50367;SDS011;36281;34.132;-118.018;2024-02-21T12:12:42;5.13;;;4.05;;
50367;SDS011;36281;34.132;-118.018;2024-02-21T12:15:11;6.32;;;4.45;;
50367;SDS011;36281;34.132;-118.018;2024-02-21T12:17:40;4.22;;;3.10;;
50367;SDS011;36281;34.132;-118.018;2024-02-21T12:20:09;2.92;;;2.42;;
50367;SDS011;36281;34.132;-118.018;2024-02-21T12:22:43;3.20;;;2.38;;
50367;SDS011;36281;34.132;-118.018;2024-02-21T12:25:21;1.70;;;1.60;;
50367;SDS011;36281;34.132;-118.018;2024-02-21T12:27:51;2.28;;;1.80;;
50367;SDS011;36281;34.132;-118.018;2024-02-21T12:30:20;2.75;;;1.88;;
50367;SDS011;36281;34.132;-118.018;2024-02-21T12:32:49;1.63;;;1.45;;
50367;SDS011;36281;34.132;-118.018;2024-02-21T12:35:19;3.03;;;1.58;;
50367;SDS011;36281;34.132;-118.018;2024-02-21T12:37:48;2.45;;;1.23;;
50367;SDS011;36281;34.132;-118.018;2024-02-21T12:40:18;5.78;;;1.70;;
50367;SDS011;36281;34.132;-118.018;2024-02-21T12:42:48;1.33;;;1.13;;
50367;SDS011;36281;34.132;-118.018;2024-02-21T12:45:18;2.15;;;1.27;;
50367;SDS011;36281;34.132;-118.018;2024-02-21T12:47:47;1.33;;;1.02;;
50367;SDS011;36281;34.132;-118.018;2024-02-21T12:50:17;1.02;;;1.02;;
50367;SDS011;36281;34.132;-118.018;2024-02-21T12:52:47;2.95;;;0.95;;
50367;SDS011;36281;34.132;-118.018;2024-02-21T12:55:17;1.33;;;1.00;;
50367;SDS011;36281;34.132;-118.018;2024-02-21T12:57:48;0.95;;;0.93;;
50367;SDS011;36281;34.132;-118.018;2024-02-21T13:00:17;1.20;;;0.93;;
50367;SDS011;36281;34.132;-118.018;2024-02-21T13:02:48;2.28;;;1.30;;
50367;SDS011;36281;34.132;-118.018;2024-02-21T13:05:19;3.00;;;1.10;;
50367;SDS011;36281;34.132;-118.018;2024-02-21T13:07:48;1.48;;;1.38;;
50367;SDS011;36281;34.132;-118.018;2024-02-21T13:10:17;1.77;;;1.67;;
50367;SDS011;36281;34.132;-118.018;2024-02-21T13:12:48;2.58;;;1.38;;
50367;SDS011;36281;34.132;-118.018;2024-02-21T13:15:17;2.17;;;1.48;;
50367;SDS011;36281;34.132;-118.018;2024-02-21T13:17:46;2.25;;;1.52;;
50367;SDS011;36281;34.132;-118.018;2024-02-21T13:20:15;3.33;;;1.95;;
50367;SDS011;36281;34.132;-118.018;2024-02-21T13:22:45;2.13;;;1.70;;
50367;SDS011;36281;34.132;-118.018;2024-02-21T13:25:14;1.63;;;1.40;;
50367;SDS011;36281;34.132;-118.018;2024-02-21T13:27:46;1.67;;;1.40;;
50367;SDS011;36281;34.132;-118.018;2024-02-21T13:30:16;1.77;;;1.50;;
50367;SDS011;36281;34.132;-118.018;2024-02-21T13:32:45;2.15;;;1.50;;
50367;SDS011;36281;34.132;-118.018;2024-02-21T13:35:15;2.55;;;1.65;;
50367;SDS011;36281;34.132;-118.018;2024-02-21T13:37:44;2.28;;;1.55;;
50367;SDS011;36281;34.132;-118.018;2024-02-21T13:40:13;1.92;;;1.70;;
50367;SDS011;36281;34.132;-118.018;2024-02-21T13:42:42;1.70;;;1.60;;
50367;SDS011;36281;34.132;-118.018;2024-02-21T13:45:14;2.33;;;1.70;;
50367;SDS011;36281;34.132;-118.018;2024-02-21T13:47:43;2.75;;;1.90;;
50367;SDS011;36281;34.132;-118.018;2024-02-21T13:50:12;1.83;;;1.67;;
50367;SDS011;36281;34.132;-118.018;2024-02-21T13:52:42;1.90;;;1.70;;
50367;SDS011;36281;34.132;-118.018;2024-02-21T13:55:11;2.00;;;1.80;;
50367;SDS011;36281;34.132;-118.018;2024-02-21T13:57:40;2.45;;;1.88;;
50367;SDS011;36281;34.132;-118.018;2024-02-21T14:00:09;1.95;;;1.77;;
50367;SDS011;36281;34.132;-118.018;2024-02-21T14:02:41;2.92;;;1.90;;
50367;SDS011;36281;34.132;-118.018;2024-02-21T14:05:10;2.35;;;1.85;;
50367;SDS011;36281;34.132;-118.018;2024-02-21T14:07:39;5.43;;;2.08;;
50367;SDS011;36281;34.132;-118.018;2024-02-21T14:10:08;2.28;;;2.00;;
50367;SDS011;36281;34.132;-118.018;2024-02-21T14:12:37;1.85;;;1.75;;
50367;SDS011;36281;34.132;-118.018;2024-02-21T14:15:08;1.88;;;1.77;;
50367;SDS011;36281;34.132;-118.018;2024-02-21T14:17:37;2.60;;;1.80;;